sensor_id;sensor_type;location;lat;lon;timestamp;P1;durP1;ratioP1;P2;durP2;ratioP2
10045;SDS011;5063;50.878;4.742;2023-11-22T00:00:40;22.20;;;16.13;;
10045;SDS011;5063;50.878;4.742;2023-11-22T00:03:06;25.10;;;16.70;;
10045;SDS011;5063;50.878;4.742;2023-11-22T00:05:32;21.83;;;15.47;;
10045;SDS011;5063;50.878;4.742;2023-11-22T00:07:57;26.40;;;16.77;;
10045;SDS011;5063;50.878;4.742;2023-11-22T00:10:23;24.80;;;16.67;;
10045;SDS011;5063;50.878;4.742;2023-11-22T00:12:49;26.10;;;18.17;;
10045;SDS011;5063;50.878;4.742;2023-11-22T00:15:15;25.83;;;17.57;;
10045;SDS011;5063;50.878;4.742;2023-11-22T00:17:46;26.60;;;17.23;;
10045;SDS011;5063;50.878;4.742;2023-11-22T00:20:12;27.23;;;17.70;;
10045;SDS011;5063;50.878;4.742;2023-11-22T00:22:38;31.37;;;18.53;;
10045;SDS011;5063;50.878;4.742;2023-11-22T00:25:03;24.87;;;17.03;;
10045;SDS011;5063;50.878;4.742;2023-11-22T00:27:30;30.60;;;18.90;;
10045;SDS011;5063;50.878;4.742;2023-11-22T00:29:59;31.43;;;19.40;;
10045;SDS011;5063;50.878;4.742;2023-11-22T00:32:25;28.90;;;18.90;;
10045;SDS011;5063;50.878;4.742;2023-11-22T00:34:51;28.33;;;19.20;;
10045;SDS011;5063;50.878;4.742;2023-11-22T00:37:17;30.13;;;19.43;;
10045;SDS011;5063;50.878;4.742;2023-11-22T00:39:43;26.60;;;18.63;;
10045;SDS011;5063;50.878;4.742;2023-11-22T00:42:09;28.67;;;18.97;;
10045;SDS011;5063;50.878;4.742;2023-11-22T00:44:34;31.60;;;19.67;;
10045;SDS011;5063;50.878;4.742;2023-11-22T00:47:01;27.43;;;18.33;;
10045;SDS011;5063;50.878;4.742;2023-11-22T00:49:27;30.23;;;20.13;;
10045;SDS011;5063;50.878;4.742;2023-11-22T00:51:53;27.73;;;19.47;;
10045;SDS011;5063;50.878;4.742;2023-11-22T00:54:19;31.10;;;19.37;;
10045;SDS011;5063;50.878;4.742;2023-11-22T00:56:45;29.97;;;19.20;;
10045;SDS011;5063;50.878;4.742;2023-11-22T00:59:11;29.60;;;18.57;;
10045;SDS011;5063;50.878;4.742;2023-11-22T01:01:37;32.23;;;18.27;;
10045;SDS011;5063;50.878;4.742;2023-11-22T01:04:03;28.13;;;19.60;;
10045;SDS011;5063;50.878;4.742;2023-11-22T01:06:31;31.10;;;18.87;;
10045;SDS011;5063;50.878;4.742;2023-11-22T01:08:57;26.20;;;17.30;;
10045;SDS011;5063;50.878;4.742;2023-11-22T01:11:23;27.80;;;18.80;;
10045;SDS011;5063;50.878;4.742;2023-11-22T01:13:48;27.83;;;17.70;;
10045;SDS011;5063;50.878;4.742;2023-11-22T01:16:14;27.20;;;18.63;;
10045;SDS011;5063;50.878;4.742;2023-11-22T01:18:40;29.13;;;18.67;;
10045;SDS011;5063;50.878;4.742;2023-11-22T01:21:06;30.50;;;18.13;;
10045;SDS011;5063;50.878;4.742;2023-11-22T01:23:33;27.03;;;19.23;;
10045;SDS011;5063;50.878;4.742;2023-11-22T01:25:59;26.77;;;17.57;;
10045;SDS011;5063;50.878;4.742;2023-11-22T01:28:25;27.90;;;18.60;;
10045;SDS011;5063;50.878;4.742;2023-11-22T01:30:54;25.33;;;16.87;;
10045;SDS011;5063;50.878;4.742;2023-11-22T01:33:20;27.87;;;18.93;;
10045;SDS011;5063;50.878;4.742;2023-11-22T01:35:47;28.60;;;18.37;;
10045;SDS011;5063;50.878;4.742;2023-11-22T01:38:13;32.00;;;18.83;;
10045;SDS011;5063;50.878;4.742;2023-11-22T01:40:45;25.47;;;17.90;;
10045;SDS011;5063;50.878;4.742;2023-11-22T01:43:16;28.00;;;18.63;;
10045;SDS011;5063;50.878;4.742;2023-11-22T01:45:43;25.33;;;16.20;;
10045;SDS011;5063;50.878;4.742;2023-11-22T01:48:12;24.00;;;16.70;;
10045;SDS011;5063;50.878;4.742;2023-11-22T01:50:39;27.13;;;18.03;;
10045;SDS011;5063;50.878;4.742;2023-11-22T01:53:10;27.37;;;18.57;;
10045;SDS011;5063;50.878;4.742;2023-11-22T01:55:37;27.00;;;18.63;;
10045;SDS011;5063;50.878;4.742;2023-11-22T01:58:05;28.20;;;17.83;;
10045;SDS011;5063;50.878;4.742;2023-11-22T02:00:32;24.20;;;17.20;;
10045;SDS011;5063;50.878;4.742;2023-11-22T02:03:06;25.97;;;17.23;;
10045;SDS011;5063;50.878;4.742;2023-11-22T02:05:32;27.57;;;18.10;;
10045;SDS011;5063;50.878;4.742;2023-11-22T02:07:58;26.70;;;18.37;;
10045;SDS011;5063;50.878;4.742;2023-11-22T02:10:24;27.73;;;18.93;;
10045;SDS011;5063;50.878;4.742;2023-11-22T02:12:50;27.77;;;17.57;;
10045;SDS011;5063;50.878;4.742;2023-11-22T02:15:15;25.10;;;16.60;;
10045;SDS011;5063;50.878;4.742;2023-11-22T02:17:41;27.50;;;18.90;;
10045;SDS011;5063;50.878;4.742;2023-11-22T02:20:07;28.00;;;17.33;;
10045;SDS011;5063;50.878;4.742;2023-11-22T02:22:45;27.07;;;18.30;;
10045;SDS011;5063;50.878;4.742;2023-11-22T02:25:12;26.13;;;17.70;;
10045;SDS011;5063;50.878;4.742;2023-11-22T02:27:37;29.37;;;18.50;;
10045;SDS011;5063;50.878;4.742;2023-11-22T02:30:05;27.20;;;18.03;;
10045;SDS011;5063;50.878;4.742;2023-11-22T02:32:31;30.73;;;17.97;;
10045;SDS011;5063;50.878;4.742;2023-11-22T02:34:58;29.30;;;19.00;;
10045;SDS011;5063;50.878;4.742;2023-11-22T02:37:24;27.07;;;18.37;;
10045;SDS011;5063;50.878;4.742;2023-11-22T02:40:32;30.73;;;19.53;;
10045;SDS011;5063;50.878;4.742;2023-11-22T02:42:43;27.67;;;19.17;;
10045;SDS011;5063;50.878;4.742;2023-11-22T02:45:11;29.47;;;19.77;;
10045;SDS011;5063;50.878;4.742;2023-11-22T02:47:39;29.10;;;19.77;;
10045;SDS011;5063;50.878;4.742;2023-11-22T02:50:05;32.37;;;21.10;;
10045;SDS011;5063;50.878;4.742;2023-11-22T02:52:31;31.17;;;20.10;;
10045;SDS011;5063;50.878;4.742;2023-11-22T02:54:57;33.40;;;21.30;;
10045;SDS011;5063;50.878;4.742;2023-11-22T02:57:23;30.23;;;20.23;;
10045;SDS011;5063;50.878;4.742;2023-11-22T02:59:49;30.53;;;19.33;;
10045;SDS011;5063;50.878;4.742;2023-11-22T03:02:15;32.40;;;18.97;;
10045;SDS011;5063;50.878;4.742;2023-11-22T03:04:46;29.37;;;18.73;;
10045;SDS011;5063;50.878;4.742;2023-11-22T03:07:12;25.50;;;16.50;;
10045;SDS011;5063;50.878;4.742;2023-11-22T03:09:38;29.80;;;18.53;;
10045;SDS011;5063;50.878;4.742;2023-11-22T03:12:04;29.23;;;19.13;;
10045;SDS011;5063;50.878;4.742;2023-11-22T03:14:31;30.90;;;18.73;;
10045;SDS011;5063;50.878;4.742;2023-11-22T03:16:57;33.67;;;19.10;;
10045;SDS011;5063;50.878;4.742;2023-11-22T03:19:23;30.93;;;18.13;;
10045;SDS011;5063;50.878;4.742;2023-11-22T03:21:49;28.07;;;19.40;;
10045;SDS011;5063;50.878;4.742;2023-11-22T03:24:15;31.37;;;19.27;;
10045;SDS011;5063;50.878;4.742;2023-11-22T03:26:41;28.83;;;18.53;;
10045;SDS011;5063;50.878;4.742;2023-11-22T03:29:07;29.07;;;18.37;;
10045;SDS011;5063;50.878;4.742;2023-11-22T03:31:32;25.30;;;17.07;;
10045;SDS011;5063;50.878;4.742;2023-11-22T03:33:58;30.77;;;18.70;;
10045;SDS011;5063;50.878;4.742;2023-11-22T03:36:24;26.53;;;17.10;;
10045;SDS011;5063;50.878;4.742;2023-11-22T03:38:50;27.50;;;18.17;;
10045;SDS011;5063;50.878;4.742;2023-11-22T03:41:16;28.37;;;18.10;;
10045;SDS011;5063;50.878;4.742;2023-11-22T03:43:46;27.07;;;18.20;;
10045;SDS011;5063;50.878;4.742;2023-11-22T03:46:12;28.70;;;18.43;;
10045;SDS011;5063;50.878;4.742;2023-11-22T03:48:38;29.90;;;18.43;;
10045;SDS011;5063;50.878;4.742;2023-11-22T03:51:03;27.37;;;17.57;;
10045;SDS011;5063;50.878;4.742;2023-11-22T03:53:29;27.07;;;17.43;;
10045;SDS011;5063;50.878;4.742;2023-11-22T03:55:55;27.73;;;18.40;;
10045;SDS011;5063;50.878;4.742;2023-11-22T03:58:21;27.60;;;17.60;;
10045;SDS011;5063;50.878;4.742;2023-11-22T04:00:46;27.63;;;18.47;;
10045;SDS011;5063;50.878;4.742;2023-11-22T04:03:12;30.97;;;18.27;;
10045;SDS011;5063;50.878;4.742;2023-11-22T04:05:38;30.30;;;18.63;;
10045;SDS011;5063;50.878;4.742;2023-11-22T04:08:04;31.53;;;18.83;;
10045;SDS011;5063;50.878;4.742;2023-11-22T04:10:30;30.63;;;18.37;;
10045;SDS011;5063;50.878;4.742;2023-11-22T04:12:56;29.60;;;19.27;;
10045;SDS011;5063;50.878;4.742;2023-11-22T04:15:22;28.60;;;17.63;;
10045;SDS011;5063;50.878;4.742;2023-11-22T04:17:47;27.53;;;17.10;;
10045;SDS011;5063;50.878;4.742;2023-11-22T04:20:14;28.07;;;18.33;;
10045;SDS011;5063;50.878;4.742;2023-11-22T04:22:40;31.83;;;19.10;;
10045;SDS011;5063;50.878;4.742;2023-11-22T04:25:06;27.63;;;17.63;;
10045;SDS011;5063;50.878;4.742;2023-11-22T04:27:33;28.53;;;17.77;;
10045;SDS011;5063;50.878;4.742;2023-11-22T04:29:59;28.60;;;17.70;;
10045;SDS011;5063;50.878;4.742;2023-11-22T04:32:25;27.90;;;17.33;;
10045;SDS011;5063;50.878;4.742;2023-11-22T04:34:51;30.13;;;18.47;;
10045;SDS011;5063;50.878;4.742;2023-11-22T04:37:16;29.93;;;18.43;;
10045;SDS011;5063;50.878;4.742;2023-11-22T04:39:42;26.27;;;17.47;;
10045;SDS011;5063;50.878;4.742;2023-11-22T04:42:09;29.77;;;18.20;;
10045;SDS011;5063;50.878;4.742;2023-11-22T04:44:34;27.27;;;18.67;;
10045;SDS011;5063;50.878;4.742;2023-11-22T04:47:00;27.47;;;17.97;;
10045;SDS011;5063;50.878;4.742;2023-11-22T04:49:26;31.40;;;17.60;;
10045;SDS011;5063;50.878;4.742;2023-11-22T04:51:52;31.40;;;18.87;;
10045;SDS011;5063;50.878;4.742;2023-11-22T04:54:18;32.33;;;17.63;;
10045;SDS011;5063;50.878;4.742;2023-11-22T04:56:43;30.97;;;16.80;;
10045;SDS011;5063;50.878;4.742;2023-11-22T04:59:09;30.30;;;19.00;;
10045;SDS011;5063;50.878;4.742;2023-11-22T05:01:35;27.37;;;17.47;;
10045;SDS011;5063;50.878;4.742;2023-11-22T05:04:01;24.43;;;15.57;;
10045;SDS011;5063;50.878;4.742;2023-11-22T05:06:27;27.67;;;18.53;;
10045;SDS011;5063;50.878;4.742;2023-11-22T05:08:54;28.37;;;18.40;;
10045;SDS011;5063;50.878;4.742;2023-11-22T05:11:20;29.67;;;18.33;;
10045;SDS011;5063;50.878;4.742;2023-11-22T05:13:46;25.23;;;17.03;;
10045;SDS011;5063;50.878;4.742;2023-11-22T05:16:12;22.97;;;15.90;;
10045;SDS011;5063;50.878;4.742;2023-11-22T05:18:38;22.70;;;16.57;;
10045;SDS011;5063;50.878;4.742;2023-11-22T05:21:04;25.30;;;16.53;;
10045;SDS011;5063;50.878;4.742;2023-11-22T05:23:30;25.80;;;15.13;;
10045;SDS011;5063;50.878;4.742;2023-11-22T05:25:59;23.30;;;15.63;;
10045;SDS011;5063;50.878;4.742;2023-11-22T05:28:28;30.50;;;18.47;;
10045;SDS011;5063;50.878;4.742;2023-11-22T05:30:54;25.57;;;17.90;;
10045;SDS011;5063;50.878;4.742;2023-11-22T05:33:20;28.50;;;18.20;;
10045;SDS011;5063;50.878;4.742;2023-11-22T05:35:45;25.30;;;16.67;;
10045;SDS011;5063;50.878;4.742;2023-11-22T05:38:11;30.43;;;18.87;;
10045;SDS011;5063;50.878;4.742;2023-11-22T05:40:37;28.50;;;19.30;;
10045;SDS011;5063;50.878;4.742;2023-11-22T05:43:03;32.80;;;20.23;;
10045;SDS011;5063;50.878;4.742;2023-11-22T05:45:30;29.23;;;19.87;;
10045;SDS011;5063;50.878;4.742;2023-11-22T05:47:55;31.17;;;18.37;;
10045;SDS011;5063;50.878;4.742;2023-11-22T05:50:21;35.57;;;21.03;;
10045;SDS011;5063;50.878;4.742;2023-11-22T05:52:47;31.70;;;19.63;;
10045;SDS011;5063;50.878;4.742;2023-11-22T05:55:13;31.57;;;19.47;;
10045;SDS011;5063;50.878;4.742;2023-11-22T05:57:42;31.33;;;19.37;;
10045;SDS011;5063;50.878;4.742;2023-11-22T06:00:08;32.17;;;19.60;;
10045;SDS011;5063;50.878;4.742;2023-11-22T06:02:34;33.13;;;19.57;;
10045;SDS011;5063;50.878;4.742;2023-11-22T06:05:00;35.20;;;21.03;;
10045;SDS011;5063;50.878;4.742;2023-11-22T06:07:25;34.90;;;21.63;;
10045;SDS011;5063;50.878;4.742;2023-11-22T06:09:52;33.30;;;19.10;;
10045;SDS011;5063;50.878;4.742;2023-11-22T06:12:18;34.63;;;20.93;;
10045;SDS011;5063;50.878;4.742;2023-11-22T06:14:45;34.20;;;21.43;;
10045;SDS011;5063;50.878;4.742;2023-11-22T06:17:12;38.57;;;22.07;;
10045;SDS011;5063;50.878;4.742;2023-11-22T06:19:39;33.30;;;21.47;;
10045;SDS011;5063;50.878;4.742;2023-11-22T06:22:06;34.50;;;20.30;;
10045;SDS011;5063;50.878;4.742;2023-11-22T06:24:32;33.47;;;21.43;;
10045;SDS011;5063;50.878;4.742;2023-11-22T06:26:59;33.67;;;19.83;;
10045;SDS011;5063;50.878;4.742;2023-11-22T06:29:25;34.63;;;20.47;;
10045;SDS011;5063;50.878;4.742;2023-11-22T06:31:51;35.67;;;21.60;;
10045;SDS011;5063;50.878;4.742;2023-11-22T06:34:16;37.47;;;21.73;;
10045;SDS011;5063;50.878;4.742;2023-11-22T06:36:42;37.33;;;21.40;;
10045;SDS011;5063;50.878;4.742;2023-11-22T06:39:08;35.93;;;20.30;;
10045;SDS011;5063;50.878;4.742;2023-11-22T06:41:34;35.00;;;19.13;;
10045;SDS011;5063;50.878;4.742;2023-11-22T06:44:00;36.03;;;20.80;;
10045;SDS011;5063;50.878;4.742;2023-11-22T06:46:27;37.10;;;20.43;;
10045;SDS011;5063;50.878;4.742;2023-11-22T06:48:53;39.03;;;22.57;;
10045;SDS011;5063;50.878;4.742;2023-11-22T06:51:21;35.90;;;22.20;;
10045;SDS011;5063;50.878;4.742;2023-11-22T06:53:47;37.93;;;20.77;;
10045;SDS011;5063;50.878;4.742;2023-11-22T06:56:13;37.27;;;21.37;;
10045;SDS011;5063;50.878;4.742;2023-11-22T06:58:39;39.63;;;22.87;;
10045;SDS011;5063;50.878;4.742;2023-11-22T07:01:05;37.40;;;20.43;;
10045;SDS011;5063;50.878;4.742;2023-11-22T07:03:32;36.57;;;20.80;;
10045;SDS011;5063;50.878;4.742;2023-11-22T07:05:58;38.73;;;21.27;;
10045;SDS011;5063;50.878;4.742;2023-11-22T07:08:24;36.80;;;21.37;;
10045;SDS011;5063;50.878;4.742;2023-11-22T07:10:52;36.63;;;21.43;;
10045;SDS011;5063;50.878;4.742;2023-11-22T07:13:18;36.07;;;21.07;;
10045;SDS011;5063;50.878;4.742;2023-11-22T07:15:43;40.97;;;22.87;;
10045;SDS011;5063;50.878;4.742;2023-11-22T07:18:09;43.00;;;23.80;;
10045;SDS011;5063;50.878;4.742;2023-11-22T07:20:36;43.70;;;23.67;;
10045;SDS011;5063;50.878;4.742;2023-11-22T07:23:04;43.33;;;22.87;;
10045;SDS011;5063;50.878;4.742;2023-11-22T07:25:29;37.50;;;22.00;;
10045;SDS011;5063;50.878;4.742;2023-11-22T07:27:56;48.90;;;23.97;;
10045;SDS011;5063;50.878;4.742;2023-11-22T07:30:22;45.83;;;24.87;;
10045;SDS011;5063;50.878;4.742;2023-11-22T07:32:51;51.93;;;25.93;;
10045;SDS011;5063;50.878;4.742;2023-11-22T07:35:17;50.97;;;24.33;;
10045;SDS011;5063;50.878;4.742;2023-11-22T07:37:45;49.67;;;25.47;;
10045;SDS011;5063;50.878;4.742;2023-11-22T07:40:13;44.53;;;25.00;;
10045;SDS011;5063;50.878;4.742;2023-11-22T07:42:39;43.17;;;23.27;;
10045;SDS011;5063;50.878;4.742;2023-11-22T07:45:06;45.47;;;24.30;;
10045;SDS011;5063;50.878;4.742;2023-11-22T07:47:32;43.13;;;23.13;;
10045;SDS011;5063;50.878;4.742;2023-11-22T07:49:58;49.03;;;25.03;;
10045;SDS011;5063;50.878;4.742;2023-11-22T07:52:24;45.63;;;23.67;;
10045;SDS011;5063;50.878;4.742;2023-11-22T07:54:58;42.50;;;24.57;;
10045;SDS011;5063;50.878;4.742;2023-11-22T07:57:24;38.03;;;21.40;;
10045;SDS011;5063;50.878;4.742;2023-11-22T07:59:50;39.57;;;23.40;;
10045;SDS011;5063;50.878;4.742;2023-11-22T08:02:21;43.57;;;22.30;;
10045;SDS011;5063;50.878;4.742;2023-11-22T08:04:46;43.37;;;24.07;;
10045;SDS011;5063;50.878;4.742;2023-11-22T08:07:14;43.10;;;24.00;;
10045;SDS011;5063;50.878;4.742;2023-11-22T08:09:40;36.07;;;21.57;;
10045;SDS011;5063;50.878;4.742;2023-11-22T08:12:07;37.30;;;20.40;;
10045;SDS011;5063;50.878;4.742;2023-11-22T08:14:33;44.80;;;23.63;;
10045;SDS011;5063;50.878;4.742;2023-11-22T08:16:58;35.67;;;20.93;;
10045;SDS011;5063;50.878;4.742;2023-11-22T08:19:24;29.13;;;18.67;;
10045;SDS011;5063;50.878;4.742;2023-11-22T08:21:50;33.03;;;19.47;;
10045;SDS011;5063;50.878;4.742;2023-11-22T08:24:16;31.00;;;18.23;;
10045;SDS011;5063;50.878;4.742;2023-11-22T08:26:42;34.77;;;20.13;;
10045;SDS011;5063;50.878;4.742;2023-11-22T08:29:08;35.03;;;20.17;;
10045;SDS011;5063;50.878;4.742;2023-11-22T08:31:33;35.67;;;20.67;;
10045;SDS011;5063;50.878;4.742;2023-11-22T08:34:01;34.90;;;21.33;;
10045;SDS011;5063;50.878;4.742;2023-11-22T08:36:29;35.20;;;21.80;;
10045;SDS011;5063;50.878;4.742;2023-11-22T08:38:58;35.63;;;20.57;;
10045;SDS011;5063;50.878;4.742;2023-11-22T08:41:26;41.47;;;21.07;;
10045;SDS011;5063;50.878;4.742;2023-11-22T08:43:54;33.90;;;20.93;;
10045;SDS011;5063;50.878;4.742;2023-11-22T08:46:20;31.40;;;20.03;;
10045;SDS011;5063;50.878;4.742;2023-11-22T08:48:45;35.90;;;21.63;;
10045;SDS011;5063;50.878;4.742;2023-11-22T08:51:11;36.50;;;21.10;;
10045;SDS011;5063;50.878;4.742;2023-11-22T08:53:38;35.13;;;20.87;;
10045;SDS011;5063;50.878;4.742;2023-11-22T08:56:04;34.87;;;19.83;;
10045;SDS011;5063;50.878;4.742;2023-11-22T08:58:30;36.23;;;21.60;;
10045;SDS011;5063;50.878;4.742;2023-11-22T09:00:56;34.50;;;20.17;;
10045;SDS011;5063;50.878;4.742;2023-11-22T09:03:23;30.90;;;19.50;;
10045;SDS011;5063;50.878;4.742;2023-11-22T09:05:49;32.07;;;20.63;;
10045;SDS011;5063;50.878;4.742;2023-11-22T09:08:15;31.43;;;20.17;;
10045;SDS011;5063;50.878;4.742;2023-11-22T09:10:41;28.67;;;19.80;;
10045;SDS011;5063;50.878;4.742;2023-11-22T09:13:08;31.80;;;20.53;;
10045;SDS011;5063;50.878;4.742;2023-11-22T09:15:34;26.67;;;19.37;;
10045;SDS011;5063;50.878;4.742;2023-11-22T09:18:00;30.57;;;19.53;;
10045;SDS011;5063;50.878;4.742;2023-11-22T09:20:26;29.53;;;19.10;;
10045;SDS011;5063;50.878;4.742;2023-11-22T09:22:52;32.17;;;20.53;;
10045;SDS011;5063;50.878;4.742;2023-11-22T09:25:26;27.57;;;18.67;;
10045;SDS011;5063;50.878;4.742;2023-11-22T09:27:53;29.87;;;18.77;;
10045;SDS011;5063;50.878;4.742;2023-11-22T09:30:21;26.60;;;19.00;;
10045;SDS011;5063;50.878;4.742;2023-11-22T09:33:00;30.13;;;19.93;;
10045;SDS011;5063;50.878;4.742;2023-11-22T09:35:37;30.03;;;18.90;;
10045;SDS011;5063;50.878;4.742;2023-11-22T09:38:04;29.57;;;18.87;;
10045;SDS011;5063;50.878;4.742;2023-11-22T09:40:34;26.07;;;18.10;;
10045;SDS011;5063;50.878;4.742;2023-11-22T09:43:01;27.90;;;18.40;;
10045;SDS011;5063;50.878;4.742;2023-11-22T09:45:27;25.67;;;18.13;;
10045;SDS011;5063;50.878;4.742;2023-11-22T09:47:57;25.27;;;17.37;;
10045;SDS011;5063;50.878;4.742;2023-11-22T09:52:52;25.23;;;18.17;;
10045;SDS011;5063;50.878;4.742;2023-11-22T09:55:26;23.47;;;16.77;;
10045;SDS011;5063;50.878;4.742;2023-11-22T09:57:54;26.20;;;17.57;;
10045;SDS011;5063;50.878;4.742;2023-11-22T10:00:23;23.80;;;15.87;;
10045;SDS011;5063;50.878;4.742;2023-11-22T10:02:52;24.77;;;16.40;;
10045;SDS011;5063;50.878;4.742;2023-11-22T10:05:19;24.47;;;16.30;;
10045;SDS011;5063;50.878;4.742;2023-11-22T10:07:46;29.23;;;16.37;;
10045;SDS011;5063;50.878;4.742;2023-11-22T10:10:15;20.73;;;15.97;;
10045;SDS011;5063;50.878;4.742;2023-11-22T10:12:43;26.43;;;17.03;;
10045;SDS011;5063;50.878;4.742;2023-11-22T10:15:13;22.60;;;15.83;;
10045;SDS011;5063;50.878;4.742;2023-11-22T10:17:42;23.60;;;15.80;;
10045;SDS011;5063;50.878;4.742;2023-11-22T10:20:21;26.53;;;16.87;;
10045;SDS011;5063;50.878;4.742;2023-11-22T10:22:51;25.40;;;17.03;;
10045;SDS011;5063;50.878;4.742;2023-11-22T10:25:17;26.77;;;17.37;;
10045;SDS011;5063;50.878;4.742;2023-11-22T10:27:44;22.20;;;16.27;;
10045;SDS011;5063;50.878;4.742;2023-11-22T10:30:11;23.10;;;16.97;;
10045;SDS011;5063;50.878;4.742;2023-11-22T10:32:37;22.70;;;15.87;;
10045;SDS011;5063;50.878;4.742;2023-11-22T10:35:06;25.27;;;16.73;;
10045;SDS011;5063;50.878;4.742;2023-11-22T10:37:33;22.93;;;16.07;;
10045;SDS011;5063;50.878;4.742;2023-11-22T10:39:59;22.47;;;16.03;;
10045;SDS011;5063;50.878;4.742;2023-11-22T10:42:25;24.23;;;16.40;;
10045;SDS011;5063;50.878;4.742;2023-11-22T10:44:54;22.57;;;15.63;;
10045;SDS011;5063;50.878;4.742;2023-11-22T10:47:22;21.43;;;15.00;;
10045;SDS011;5063;50.878;4.742;2023-11-22T10:49:49;20.83;;;14.87;;
10045;SDS011;5063;50.878;4.742;2023-11-22T10:52:16;20.73;;;16.10;;
10045;SDS011;5063;50.878;4.742;2023-11-22T10:54:44;19.80;;;14.87;;
10045;SDS011;5063;50.878;4.742;2023-11-22T10:57:15;18.07;;;13.97;;
10045;SDS011;5063;50.878;4.742;2023-11-22T10:59:44;18.63;;;14.10;;
10045;SDS011;5063;50.878;4.742;2023-11-22T11:02:19;23.20;;;14.97;;
10045;SDS011;5063;50.878;4.742;2023-11-22T11:04:54;19.43;;;13.40;;
10045;SDS011;5063;50.878;4.742;2023-11-22T11:07:28;19.57;;;14.00;;
10045;SDS011;5063;50.878;4.742;2023-11-22T11:09:59;20.27;;;13.77;;
10045;SDS011;5063;50.878;4.742;2023-11-22T11:12:26;18.60;;;14.10;;
10045;SDS011;5063;50.878;4.742;2023-11-22T11:14:52;16.07;;;11.97;;
10045;SDS011;5063;50.878;4.742;2023-11-22T11:17:18;18.03;;;13.70;;
10045;SDS011;5063;50.878;4.742;2023-11-22T11:19:44;15.20;;;12.03;;
10045;SDS011;5063;50.878;4.742;2023-11-22T11:22:10;15.43;;;12.13;;
10045;SDS011;5063;50.878;4.742;2023-11-22T11:24:40;17.73;;;12.33;;
10045;SDS011;5063;50.878;4.742;2023-11-22T11:27:10;17.87;;;13.53;;
10045;SDS011;5063;50.878;4.742;2023-11-22T11:29:36;18.77;;;13.97;;
10045;SDS011;5063;50.878;4.742;2023-11-22T11:32:51;16.80;;;12.80;;
10045;SDS011;5063;50.878;4.742;2023-11-22T11:34:57;16.43;;;12.63;;
10045;SDS011;5063;50.878;4.742;2023-11-22T11:37:31;17.70;;;13.43;;
10045;SDS011;5063;50.878;4.742;2023-11-22T11:39:57;18.47;;;13.80;;
10045;SDS011;5063;50.878;4.742;2023-11-22T11:42:23;18.70;;;13.60;;
10045;SDS011;5063;50.878;4.742;2023-11-22T11:47:24;18.00;;;12.53;;
10045;SDS011;5063;50.878;4.742;2023-11-22T11:49:50;16.77;;;12.80;;
10045;SDS011;5063;50.878;4.742;2023-11-22T11:52:16;16.00;;;12.20;;
10045;SDS011;5063;50.878;4.742;2023-11-22T11:54:41;17.10;;;12.27;;
10045;SDS011;5063;50.878;4.742;2023-11-22T11:57:07;16.00;;;11.60;;
10045;SDS011;5063;50.878;4.742;2023-11-22T11:59:33;13.07;;;11.13;;
10045;SDS011;5063;50.878;4.742;2023-11-22T12:02:00;17.87;;;12.17;;
10045;SDS011;5063;50.878;4.742;2023-11-22T12:04:26;15.57;;;11.77;;
10045;SDS011;5063;50.878;4.742;2023-11-22T12:06:52;15.90;;;10.97;;
10045;SDS011;5063;50.878;4.742;2023-11-22T12:09:25;13.83;;;10.57;;
10045;SDS011;5063;50.878;4.742;2023-11-22T12:11:51;16.33;;;12.97;;
10045;SDS011;5063;50.878;4.742;2023-11-22T12:14:20;16.43;;;11.50;;
10045;SDS011;5063;50.878;4.742;2023-11-22T12:16:49;14.43;;;11.63;;
10045;SDS011;5063;50.878;4.742;2023-11-22T12:19:22;14.60;;;11.80;;
10045;SDS011;5063;50.878;4.742;2023-11-22T12:21:49;18.00;;;12.20;;
10045;SDS011;5063;50.878;4.742;2023-11-22T12:24:15;16.77;;;11.17;;
10045;SDS011;5063;50.878;4.742;2023-11-22T12:26:45;15.13;;;11.87;;
10045;SDS011;5063;50.878;4.742;2023-11-22T12:29:12;14.23;;;10.83;;
10045;SDS011;5063;50.878;4.742;2023-11-22T12:31:45;13.67;;;11.03;;
10045;SDS011;5063;50.878;4.742;2023-11-22T12:34:12;14.03;;;11.20;;
10045;SDS011;5063;50.878;4.742;2023-11-22T12:36:40;13.97;;;11.20;;
10045;SDS011;5063;50.878;4.742;2023-11-22T12:39:07;15.67;;;11.23;;
10045;SDS011;5063;50.878;4.742;2023-11-22T12:41:51;18.10;;;12.13;;
10045;SDS011;5063;50.878;4.742;2023-11-22T12:44:18;16.17;;;11.43;;
10045;SDS011;5063;50.878;4.742;2023-11-22T12:46:48;15.53;;;11.43;;
10045;SDS011;5063;50.878;4.742;2023-11-22T12:49:20;14.27;;;10.87;;
10045;SDS011;5063;50.878;4.742;2023-11-22T12:51:48;15.03;;;10.57;;
10045;SDS011;5063;50.878;4.742;2023-11-22T12:54:18;15.70;;;11.20;;
10045;SDS011;5063;50.878;4.742;2023-11-22T12:56:48;13.40;;;10.77;;
10045;SDS011;5063;50.878;4.742;2023-11-22T12:59:14;15.83;;;10.83;;
10045;SDS011;5063;50.878;4.742;2023-11-22T13:01:40;13.40;;;10.73;;
10045;SDS011;5063;50.878;4.742;2023-11-22T13:04:06;14.63;;;11.03;;
10045;SDS011;5063;50.878;4.742;2023-11-22T13:06:33;14.33;;;10.43;;
10045;SDS011;5063;50.878;4.742;2023-11-22T13:08:59;15.63;;;10.80;;
10045;SDS011;5063;50.878;4.742;2023-11-22T13:11:24;14.10;;;10.43;;
10045;SDS011;5063;50.878;4.742;2023-11-22T13:13:51;13.90;;;10.50;;
10045;SDS011;5063;50.878;4.742;2023-11-22T13:16:16;14.77;;;10.47;;
10045;SDS011;5063;50.878;4.742;2023-11-22T13:18:42;14.77;;;10.63;;
10045;SDS011;5063;50.878;4.742;2023-11-22T13:21:08;13.30;;;10.87;;
10045;SDS011;5063;50.878;4.742;2023-11-22T13:23:33;14.20;;;11.03;;
10045;SDS011;5063;50.878;4.742;2023-11-22T13:25:59;16.17;;;11.53;;
10045;SDS011;5063;50.878;4.742;2023-11-22T13:28:25;16.97;;;11.67;;
10045;SDS011;5063;50.878;4.742;2023-11-22T13:30:51;16.07;;;10.40;;
10045;SDS011;5063;50.878;4.742;2023-11-22T13:33:17;15.17;;;10.27;;
10045;SDS011;5063;50.878;4.742;2023-11-22T13:35:43;17.97;;;12.10;;
10045;SDS011;5063;50.878;4.742;2023-11-22T13:38:09;14.33;;;11.50;;
10045;SDS011;5063;50.878;4.742;2023-11-22T13:40:36;15.10;;;11.87;;
10045;SDS011;5063;50.878;4.742;2023-11-22T13:43:04;17.47;;;11.30;;
10045;SDS011;5063;50.878;4.742;2023-11-22T13:45:31;16.27;;;11.93;;
10045;SDS011;5063;50.878;4.742;2023-11-22T13:47:58;16.20;;;12.03;;
10045;SDS011;5063;50.878;4.742;2023-11-22T13:50:29;15.90;;;11.30;;
10045;SDS011;5063;50.878;4.742;2023-11-22T13:52:55;19.57;;;11.77;;
10045;SDS011;5063;50.878;4.742;2023-11-22T13:55:22;16.73;;;12.10;;
10045;SDS011;5063;50.878;4.742;2023-11-22T13:57:55;14.93;;;10.77;;
10045;SDS011;5063;50.878;4.742;2023-11-22T14:00:23;15.57;;;10.57;;
10045;SDS011;5063;50.878;4.742;2023-11-22T14:02:55;16.20;;;11.30;;
10045;SDS011;5063;50.878;4.742;2023-11-22T14:05:22;17.40;;;12.03;;
10045;SDS011;5063;50.878;4.742;2023-11-22T14:07:48;14.83;;;11.20;;
10045;SDS011;5063;50.878;4.742;2023-11-22T14:10:16;14.17;;;10.57;;
10045;SDS011;5063;50.878;4.742;2023-11-22T14:12:43;16.10;;;10.83;;
10045;SDS011;5063;50.878;4.742;2023-11-22T14:15:13;16.17;;;10.73;;
10045;SDS011;5063;50.878;4.742;2023-11-22T14:17:38;15.23;;;11.30;;
10045;SDS011;5063;50.878;4.742;2023-11-22T14:20:09;16.50;;;11.57;;
10045;SDS011;5063;50.878;4.742;2023-11-22T14:22:36;15.47;;;11.20;;
10045;SDS011;5063;50.878;4.742;2023-11-22T14:25:07;14.90;;;11.27;;
10045;SDS011;5063;50.878;4.742;2023-11-22T14:27:36;15.43;;;11.17;;
10045;SDS011;5063;50.878;4.742;2023-11-22T14:30:03;14.10;;;10.60;;
10045;SDS011;5063;50.878;4.742;2023-11-22T14:32:32;13.87;;;10.70;;
10045;SDS011;5063;50.878;4.742;2023-11-22T14:35:00;16.03;;;10.60;;
10045;SDS011;5063;50.878;4.742;2023-11-22T14:37:29;16.63;;;10.73;;